sensor_id;sensor_type;location;lat;lon;timestamp;P1;durP1;ratioP1;P2;durP2;ratioP2
5209;SDS011;2624;48.048;11.706;2023-04-03T00:02:58;4.13;;;3.63;;
5209;SDS011;2624;48.048;11.706;2023-04-03T00:08:00;3.80;;;3.40;;
5209;SDS011;2624;48.048;11.706;2023-04-03T00:13:02;2.80;;;2.60;;
5209;SDS011;2624;48.048;11.706;2023-04-03T00:18:05;3.57;;;3.27;;
5209;SDS011;2624;48.048;11.706;2023-04-03T00:23:07;3.03;;;2.83;;
5209;SDS011;2624;48.048;11.706;2023-04-03T00:28:09;3.90;;;3.50;;
5209;SDS011;2624;48.048;11.706;2023-04-03T00:33:12;4.57;;;3.67;;
5209;SDS011;2624;48.048;11.706;2023-04-03T00:38:14;3.23;;;2.93;;
5209;SDS011;2624;48.048;11.706;2023-04-03T00:43:17;4.67;;;3.70;;
5209;SDS011;2624;48.048;11.706;2023-04-03T00:48:22;6.60;;;2.80;;
5209;SDS011;2624;48.048;11.706;2023-04-03T00:53:29;2.60;;;2.50;;
5209;SDS011;2624;48.048;11.706;2023-04-03T00:58:35;4.07;;;3.30;;
5209;SDS011;2624;48.048;11.706;2023-04-03T01:03:42;3.50;;;3.20;;
5209;SDS011;2624;48.048;11.706;2023-04-03T01:08:44;2.77;;;2.57;;
5209;SDS011;2624;48.048;11.706;2023-04-03T01:13:47;3.10;;;2.80;;
5209;SDS011;2624;48.048;11.706;2023-04-03T01:18:50;3.13;;;2.80;;
5209;SDS011;2624;48.048;11.706;2023-04-03T01:24:00;2.77;;;2.57;;
5209;SDS011;2624;48.048;11.706;2023-04-03T01:29:13;3.87;;;3.57;;
5209;SDS011;2624;48.048;11.706;2023-04-03T01:34:17;2.93;;;2.73;;
5209;SDS011;2624;48.048;11.706;2023-04-03T01:39:19;3.17;;;2.87;;
5209;SDS011;2624;48.048;11.706;2023-04-03T01:44:21;7.10;;;3.07;;
5209;SDS011;2624;48.048;11.706;2023-04-03T01:49:24;3.40;;;2.67;;
5209;SDS011;2624;48.048;11.706;2023-04-03T01:54:25;5.23;;;3.10;;
5209;SDS011;2624;48.048;11.706;2023-04-03T01:59:27;3.90;;;3.60;;
5209;SDS011;2624;48.048;11.706;2023-04-03T02:04:30;2.10;;;1.97;;
5209;SDS011;2624;48.048;11.706;2023-04-03T02:09:32;2.47;;;2.33;;
5209;SDS011;2624;48.048;11.706;2023-04-03T02:14:34;3.83;;;3.40;;
5209;SDS011;2624;48.048;11.706;2023-04-03T02:19:37;3.63;;;3.30;;
5209;SDS011;2624;48.048;11.706;2023-04-03T02:24:39;3.73;;;3.17;;
5209;SDS011;2624;48.048;11.706;2023-04-03T02:29:41;3.87;;;2.90;;
5209;SDS011;2624;48.048;11.706;2023-04-03T02:34:44;5.17;;;4.03;;
5209;SDS011;2624;48.048;11.706;2023-04-03T02:39:46;2.57;;;2.47;;
5209;SDS011;2624;48.048;11.706;2023-04-03T02:44:47;3.40;;;2.77;;
5209;SDS011;2624;48.048;11.706;2023-04-03T02:49:50;6.30;;;3.33;;
5209;SDS011;2624;48.048;11.706;2023-04-03T02:54:52;5.90;;;2.80;;
5209;SDS011;2624;48.048;11.706;2023-04-03T02:59:54;3.27;;;3.00;;
5209;SDS011;2624;48.048;11.706;2023-04-03T03:04:57;5.70;;;2.90;;
5209;SDS011;2624;48.048;11.706;2023-04-03T03:09:59;2.67;;;2.47;;
5209;SDS011;2624;48.048;11.706;2023-04-03T03:15:01;3.60;;;3.33;;
5209;SDS011;2624;48.048;11.706;2023-04-03T03:20:04;3.57;;;2.80;;
5209;SDS011;2624;48.048;11.706;2023-04-03T03:25:07;4.93;;;2.80;;
5209;SDS011;2624;48.048;11.706;2023-04-03T03:30:10;5.30;;;2.70;;
5209;SDS011;2624;48.048;11.706;2023-04-03T03:35:13;3.40;;;2.70;;
5209;SDS011;2624;48.048;11.706;2023-04-03T03:40:15;3.00;;;2.80;;
5209;SDS011;2624;48.048;11.706;2023-04-03T03:45:17;2.87;;;2.60;;
5209;SDS011;2624;48.048;11.706;2023-04-03T03:50:20;3.57;;;3.27;;
5209;SDS011;2624;48.048;11.706;2023-04-03T03:55:22;2.73;;;2.53;;
5209;SDS011;2624;48.048;11.706;2023-04-03T04:00:24;2.30;;;2.00;;
5209;SDS011;2624;48.048;11.706;2023-04-03T04:05:27;3.70;;;2.93;;
5209;SDS011;2624;48.048;11.706;2023-04-03T04:10:29;3.20;;;2.97;;
5209;SDS011;2624;48.048;11.706;2023-04-03T04:15:31;4.00;;;3.27;;
5209;SDS011;2624;48.048;11.706;2023-04-03T04:20:34;3.77;;;2.50;;
5209;SDS011;2624;48.048;11.706;2023-04-03T04:25:35;3.00;;;2.70;;
5209;SDS011;2624;48.048;11.706;2023-04-03T04:30:37;2.17;;;1.97;;
5209;SDS011;2624;48.048;11.706;2023-04-03T04:35:41;4.90;;;3.00;;
5209;SDS011;2624;48.048;11.706;2023-04-03T04:40:43;3.73;;;2.63;;
5209;SDS011;2624;48.048;11.706;2023-04-03T04:45:45;1.47;;;1.33;;
5209;SDS011;2624;48.048;11.706;2023-04-03T04:50:48;2.20;;;2.10;;
5209;SDS011;2624;48.048;11.706;2023-04-03T04:55:50;5.87;;;3.20;;
5209;SDS011;2624;48.048;11.706;2023-04-03T05:00:57;2.80;;;2.70;;
5209;SDS011;2624;48.048;11.706;2023-04-03T05:06:01;2.40;;;2.20;;
5209;SDS011;2624;48.048;11.706;2023-04-03T05:11:04;2.60;;;2.20;;
5209;SDS011;2624;48.048;11.706;2023-04-03T05:16:05;1.93;;;1.83;;
5209;SDS011;2624;48.048;11.706;2023-04-03T05:21:09;3.53;;;2.50;;
5209;SDS011;2624;48.048;11.706;2023-04-03T05:26:10;5.50;;;1.87;;
5209;SDS011;2624;48.048;11.706;2023-04-03T05:31:12;2.40;;;2.30;;
5209;SDS011;2624;48.048;11.706;2023-04-03T05:36:15;2.90;;;2.73;;
5209;SDS011;2624;48.048;11.706;2023-04-03T05:41:17;2.20;;;2.07;;
5209;SDS011;2624;48.048;11.706;2023-04-03T05:46:20;1.60;;;1.50;;
5209;SDS011;2624;48.048;11.706;2023-04-03T05:51:24;5.53;;;2.70;;
5209;SDS011;2624;48.048;11.706;2023-04-03T05:56:30;1.90;;;1.80;;
5209;SDS011;2624;48.048;11.706;2023-04-03T06:01:32;2.60;;;2.40;;
5209;SDS011;2624;48.048;11.706;2023-04-03T06:06:46;2.00;;;1.90;;
5209;SDS011;2624;48.048;11.706;2023-04-03T06:11:51;2.13;;;1.97;;
5209;SDS011;2624;48.048;11.706;2023-04-03T06:16:53;1.73;;;1.73;;
5209;SDS011;2624;48.048;11.706;2023-04-03T06:21:57;1.83;;;1.60;;
5209;SDS011;2624;48.048;11.706;2023-04-03T06:26:58;2.60;;;2.30;;
5209;SDS011;2624;48.048;11.706;2023-04-03T06:32:00;2.13;;;1.17;;
5209;SDS011;2624;48.048;11.706;2023-04-03T06:37:03;1.80;;;1.63;;
5209;SDS011;2624;48.048;11.706;2023-04-03T06:42:05;2.20;;;2.10;;
5209;SDS011;2624;48.048;11.706;2023-04-03T06:47:08;4.67;;;2.07;;
5209;SDS011;2624;48.048;11.706;2023-04-03T06:52:13;1.10;;;1.10;;
5209;SDS011;2624;48.048;11.706;2023-04-03T06:57:15;2.33;;;1.67;;
5209;SDS011;2624;48.048;11.706;2023-04-03T07:02:17;3.77;;;1.83;;
5209;SDS011;2624;48.048;11.706;2023-04-03T07:07:22;1.50;;;1.50;;
5209;SDS011;2624;48.048;11.706;2023-04-03T07:12:23;1.90;;;1.80;;
5209;SDS011;2624;48.048;11.706;2023-04-03T07:17:26;1.87;;;1.77;;
5209;SDS011;2624;48.048;11.706;2023-04-03T07:22:29;1.93;;;1.83;;
5209;SDS011;2624;48.048;11.706;2023-04-03T07:27:31;2.50;;;1.97;;
5209;SDS011;2624;48.048;11.706;2023-04-03T07:32:33;2.60;;;2.00;;
5209;SDS011;2624;48.048;11.706;2023-04-03T07:37:36;1.43;;;1.20;;
5209;SDS011;2624;48.048;11.706;2023-04-03T07:42:38;2.40;;;2.30;;
5209;SDS011;2624;48.048;11.706;2023-04-03T07:47:40;2.47;;;2.30;;
5209;SDS011;2624;48.048;11.706;2023-04-03T07:52:43;2.50;;;2.30;;
5209;SDS011;2624;48.048;11.706;2023-04-03T07:57:45;2.13;;;1.97;;
5209;SDS011;2624;48.048;11.706;2023-04-03T08:02:47;2.80;;;2.10;;
5209;SDS011;2624;48.048;11.706;2023-04-03T08:07:52;2.13;;;1.07;;
5209;SDS011;2624;48.048;11.706;2023-04-03T08:12:54;1.90;;;1.40;;
5209;SDS011;2624;48.048;11.706;2023-04-03T08:17:56;1.67;;;1.57;;
5209;SDS011;2624;48.048;11.706;2023-04-03T08:22:59;2.10;;;2.00;;
5209;SDS011;2624;48.048;11.706;2023-04-03T08:28:01;3.33;;;2.90;;
5209;SDS011;2624;48.048;11.706;2023-04-03T08:33:03;2.67;;;2.47;;
5209;SDS011;2624;48.048;11.706;2023-04-03T08:38:06;2.97;;;2.67;;
5209;SDS011;2624;48.048;11.706;2023-04-03T08:43:15;2.53;;;2.33;;
5209;SDS011;2624;48.048;11.706;2023-04-03T08:48:31;2.00;;;1.87;;
5209;SDS011;2624;48.048;11.706;2023-04-03T08:53:38;2.40;;;1.63;;
5209;SDS011;2624;48.048;11.706;2023-04-03T08:58:45;2.30;;;2.20;;
5209;SDS011;2624;48.048;11.706;2023-04-03T09:03:52;2.20;;;2.10;;
5209;SDS011;2624;48.048;11.706;2023-04-03T09:08:59;2.63;;;2.43;;
5209;SDS011;2624;48.048;11.706;2023-04-03T09:14:11;2.73;;;1.97;;
5209;SDS011;2624;48.048;11.706;2023-04-03T09:19:20;3.70;;;2.50;;
5209;SDS011;2624;48.048;11.706;2023-04-03T09:24:28;2.60;;;2.40;;
5209;SDS011;2624;48.048;11.706;2023-04-03T09:29:34;1.13;;;1.10;;
5209;SDS011;2624;48.048;11.706;2023-04-03T09:34:40;2.90;;;2.60;;
5209;SDS011;2624;48.048;11.706;2023-04-03T09:39:50;0.93;;;0.93;;
5209;SDS011;2624;48.048;11.706;2023-04-03T09:44:53;2.10;;;2.00;;
5209;SDS011;2624;48.048;11.706;2023-04-03T09:50:17;2.00;;;1.90;;
5209;SDS011;2624;48.048;11.706;2023-04-03T09:55:23;2.20;;;1.97;;
5209;SDS011;2624;48.048;11.706;2023-04-03T10:00:30;1.00;;;1.00;;
5209;SDS011;2624;48.048;11.706;2023-04-03T10:05:35;4.90;;;2.00;;
5209;SDS011;2624;48.048;11.706;2023-04-03T10:10:40;3.23;;;2.80;;
5209;SDS011;2624;48.048;11.706;2023-04-03T10:15:43;2.17;;;2.07;;
5209;SDS011;2624;48.048;11.706;2023-04-03T10:20:48;2.90;;;2.70;;
5209;SDS011;2624;48.048;11.706;2023-04-03T10:25:58;2.73;;;2.53;;
5209;SDS011;2624;48.048;11.706;2023-04-03T10:31:08;1.50;;;0.87;;
5209;SDS011;2624;48.048;11.706;2023-04-03T10:36:19;1.63;;;1.53;;
5209;SDS011;2624;48.048;11.706;2023-04-03T10:41:33;2.00;;;2.00;;
5209;SDS011;2624;48.048;11.706;2023-04-03T10:46:47;4.40;;;2.03;;
5209;SDS011;2624;48.048;11.706;2023-04-03T10:51:52;1.40;;;1.30;;
5209;SDS011;2624;48.048;11.706;2023-04-03T10:57:05;2.73;;;2.00;;
5209;SDS011;2624;48.048;11.706;2023-04-03T11:02:12;1.43;;;1.43;;
5209;SDS011;2624;48.048;11.706;2023-04-03T11:07:19;10.33;;;2.00;;
5209;SDS011;2624;48.048;11.706;2023-04-03T11:12:29;1.60;;;1.50;;
5209;SDS011;2624;48.048;11.706;2023-04-03T11:17:39;2.20;;;2.00;;
5209;SDS011;2624;48.048;11.706;2023-04-03T11:22:48;3.33;;;3.03;;
5209;SDS011;2624;48.048;11.706;2023-04-03T11:27:56;2.03;;;1.90;;
5209;SDS011;2624;48.048;11.706;2023-04-03T11:33:05;1.80;;;1.70;;
5209;SDS011;2624;48.048;11.706;2023-04-03T11:38:19;3.00;;;2.80;;
5209;SDS011;2624;48.048;11.706;2023-04-03T11:43:28;2.77;;;2.00;;
5209;SDS011;2624;48.048;11.706;2023-04-03T11:48:50;2.53;;;2.10;;
5209;SDS011;2624;48.048;11.706;2023-04-03T11:53:53;1.57;;;1.53;;
5209;SDS011;2624;48.048;11.706;2023-04-03T12:04:25;1.73;;;1.60;;
5209;SDS011;2624;48.048;11.706;2023-04-03T12:09:31;2.40;;;2.00;;
5209;SDS011;2624;48.048;11.706;2023-04-03T12:14:49;2.97;;;1.50;;
5209;SDS011;2624;48.048;11.706;2023-04-03T12:19:52;1.40;;;1.30;;
5209;SDS011;2624;48.048;11.706;2023-04-03T12:24:54;1.43;;;1.40;;
5209;SDS011;2624;48.048;11.706;2023-04-03T12:29:59;1.37;;;1.37;;
5209;SDS011;2624;48.048;11.706;2023-04-03T12:35:09;2.07;;;1.97;;
5209;SDS011;2624;48.048;11.706;2023-04-03T12:40:21;5.00;;;1.30;;
5209;SDS011;2624;48.048;11.706;2023-04-03T12:45:29;2.90;;;2.50;;
5209;SDS011;2624;48.048;11.706;2023-04-03T12:50:44;2.53;;;2.07;;
5209;SDS011;2624;48.048;11.706;2023-04-03T12:55:48;2.33;;;2.13;;
5209;SDS011;2624;48.048;11.706;2023-04-03T13:01:00;1.60;;;1.50;;
5209;SDS011;2624;48.048;11.706;2023-04-03T13:06:03;2.30;;;2.10;;
5209;SDS011;2624;48.048;11.706;2023-04-03T13:11:06;2.30;;;2.13;;
5209;SDS011;2624;48.048;11.706;2023-04-03T13:16:16;8.47;;;2.30;;
5209;SDS011;2624;48.048;11.706;2023-04-03T13:21:19;1.97;;;1.87;;
5209;SDS011;2624;48.048;11.706;2023-04-03T13:26:25;1.93;;;1.83;;
5209;SDS011;2624;48.048;11.706;2023-04-03T13:31:30;5.03;;;1.70;;
5209;SDS011;2624;48.048;11.706;2023-04-03T13:36:35;2.03;;;1.83;;
5209;SDS011;2624;48.048;11.706;2023-04-03T13:41:39;4.83;;;2.40;;
5209;SDS011;2624;48.048;11.706;2023-04-03T13:46:43;2.20;;;2.10;;
5209;SDS011;2624;48.048;11.706;2023-04-03T13:51:45;2.57;;;2.47;;
5209;SDS011;2624;48.048;11.706;2023-04-03T13:56:52;4.77;;;1.70;;
5209;SDS011;2624;48.048;11.706;2023-04-03T14:02:09;1.07;;;1.07;;
5209;SDS011;2624;48.048;11.706;2023-04-03T14:07:15;1.80;;;1.50;;
5209;SDS011;2624;48.048;11.706;2023-04-03T14:12:21;1.20;;;1.00;;
5209;SDS011;2624;48.048;11.706;2023-04-03T14:17:29;0.60;;;0.60;;
5209;SDS011;2624;48.048;11.706;2023-04-03T14:22:31;0.67;;;0.67;;
5209;SDS011;2624;48.048;11.706;2023-04-03T14:27:35;1.10;;;1.00;;
5209;SDS011;2624;48.048;11.706;2023-04-03T14:32:40;2.77;;;0.93;;
5209;SDS011;2624;48.048;11.706;2023-04-03T14:37:42;1.33;;;1.23;;
5209;SDS011;2624;48.048;11.706;2023-04-03T14:42:45;1.20;;;1.20;;
5209;SDS011;2624;48.048;11.706;2023-04-03T14:47:51;0.50;;;0.50;;
5209;SDS011;2624;48.048;11.706;2023-04-03T14:52:56;0.87;;;0.87;;
5209;SDS011;2624;48.048;11.706;2023-04-03T14:57:59;1.20;;;1.10;;
5209;SDS011;2624;48.048;11.706;2023-04-03T15:03:02;3.40;;;0.73;;
5209;SDS011;2624;48.048;11.706;2023-04-03T15:08:04;2.27;;;0.90;;
5209;SDS011;2624;48.048;11.706;2023-04-03T15:13:06;1.57;;;1.47;;
5209;SDS011;2624;48.048;11.706;2023-04-03T15:18:15;1.13;;;1.00;;
5209;SDS011;2624;48.048;11.706;2023-04-03T15:23:19;1.37;;;0.97;;
5209;SDS011;2624;48.048;11.706;2023-04-03T15:28:26;0.83;;;0.83;;
5209;SDS011;2624;48.048;11.706;2023-04-03T15:33:32;1.10;;;1.10;;
5209;SDS011;2624;48.048;11.706;2023-04-03T15:38:36;0.93;;;0.93;;
5209;SDS011;2624;48.048;11.706;2023-04-03T15:43:38;1.03;;;0.90;;
5209;SDS011;2624;48.048;11.706;2023-04-03T15:48:41;0.50;;;0.50;;
5209;SDS011;2624;48.048;11.706;2023-04-03T15:53:44;0.83;;;0.83;;
5209;SDS011;2624;48.048;11.706;2023-04-03T15:58:46;1.50;;;1.40;;
5209;SDS011;2624;48.048;11.706;2023-04-03T16:03:49;3.17;;;1.90;;
5209;SDS011;2624;48.048;11.706;2023-04-03T16:08:51;0.80;;;0.80;;
5209;SDS011;2624;48.048;11.706;2023-04-03T16:13:56;0.87;;;0.87;;
5209;SDS011;2624;48.048;11.706;2023-04-03T16:19:00;1.10;;;1.10;;
5209;SDS011;2624;48.048;11.706;2023-04-03T16:24:02;0.57;;;0.57;;
5209;SDS011;2624;48.048;11.706;2023-04-03T16:29:04;2.37;;;1.00;;
5209;SDS011;2624;48.048;11.706;2023-04-03T16:34:07;0.63;;;0.60;;
5209;SDS011;2624;48.048;11.706;2023-04-03T16:39:09;0.53;;;0.53;;
5209;SDS011;2624;48.048;11.706;2023-04-03T16:44:10;4.70;;;1.10;;
5209;SDS011;2624;48.048;11.706;2023-04-03T16:49:15;0.63;;;0.63;;
5209;SDS011;2624;48.048;11.706;2023-04-03T16:54:16;4.70;;;1.20;;
5209;SDS011;2624;48.048;11.706;2023-04-03T16:59:18;5.03;;;0.90;;
5209;SDS011;2624;48.048;11.706;2023-04-03T17:04:21;0.80;;;0.80;;
5209;SDS011;2624;48.048;11.706;2023-04-03T17:09:23;0.87;;;0.87;;
5209;SDS011;2624;48.048;11.706;2023-04-03T17:14:25;0.53;;;0.53;;
5209;SDS011;2624;48.048;11.706;2023-04-03T17:19:28;7.90;;;0.70;;
5209;SDS011;2624;48.048;11.706;2023-04-03T17:24:30;1.20;;;1.10;;
5209;SDS011;2624;48.048;11.706;2023-04-03T17:29:33;0.90;;;0.90;;
5209;SDS011;2624;48.048;11.706;2023-04-03T17:34:36;0.70;;;0.70;;
5209;SDS011;2624;48.048;11.706;2023-04-03T17:39:38;0.70;;;0.70;;
5209;SDS011;2624;48.048;11.706;2023-04-03T17:44:40;0.73;;;0.73;;
5209;SDS011;2624;48.048;11.706;2023-04-03T17:49:43;0.90;;;0.90;;
5209;SDS011;2624;48.048;11.706;2023-04-03T17:54:45;2.20;;;1.00;;
5209;SDS011;2624;48.048;11.706;2023-04-03T17:59:47;0.80;;;0.80;;
5209;SDS011;2624;48.048;11.706;2023-04-03T18:04:51;0.60;;;0.60;;
5209;SDS011;2624;48.048;11.706;2023-04-03T18:09:53;0.60;;;0.60;;
5209;SDS011;2624;48.048;11.706;2023-04-03T18:14:56;1.00;;;1.00;;
5209;SDS011;2624;48.048;11.706;2023-04-03T18:20:00;1.30;;;0.80;;
5209;SDS011;2624;48.048;11.706;2023-04-03T18:25:02;1.67;;;0.83;;
5209;SDS011;2624;48.048;11.706;2023-04-03T18:30:05;3.17;;;2.70;;
5209;SDS011;2624;48.048;11.706;2023-04-03T18:35:11;5.60;;;2.13;;
5209;SDS011;2624;48.048;11.706;2023-04-03T18:40:13;1.60;;;0.70;;
5209;SDS011;2624;48.048;11.706;2023-04-03T18:45:16;1.03;;;1.00;;
5209;SDS011;2624;48.048;11.706;2023-04-03T18:50:22;1.40;;;1.30;;
5209;SDS011;2624;48.048;11.706;2023-04-03T18:55:24;1.70;;;0.90;;
5209;SDS011;2624;48.048;11.706;2023-04-03T19:00:26;1.53;;;1.30;;
5209;SDS011;2624;48.048;11.706;2023-04-03T19:05:29;0.70;;;0.70;;
5209;SDS011;2624;48.048;11.706;2023-04-03T19:10:31;1.07;;;1.07;;
5209;SDS011;2624;48.048;11.706;2023-04-03T19:15:33;1.20;;;1.20;;
5209;SDS011;2624;48.048;11.706;2023-04-03T19:20:36;2.73;;;0.90;;
5209;SDS011;2624;48.048;11.706;2023-04-03T19:25:38;0.70;;;0.70;;
5209;SDS011;2624;48.048;11.706;2023-04-03T19:30:40;2.30;;;1.90;;
5209;SDS011;2624;48.048;11.706;2023-04-03T19:35:43;2.00;;;0.90;;
5209;SDS011;2624;48.048;11.706;2023-04-03T19:40:45;1.53;;;1.20;;
5209;SDS011;2624;48.048;11.706;2023-04-03T19:45:47;3.07;;;2.10;;
5209;SDS011;2624;48.048;11.706;2023-04-03T19:50:50;2.80;;;1.97;;
5209;SDS011;2624;48.048;11.706;2023-04-03T19:55:51;3.13;;;1.90;;
5209;SDS011;2624;48.048;11.706;2023-04-03T20:00:53;1.70;;;1.60;;
5209;SDS011;2624;48.048;11.706;2023-04-03T20:05:56;1.30;;;1.30;;
5209;SDS011;2624;48.048;11.706;2023-04-03T20:10:58;1.13;;;0.97;;
5209;SDS011;2624;48.048;11.706;2023-04-03T20:16:01;1.53;;;1.27;;
5209;SDS011;2624;48.048;11.706;2023-04-03T20:21:05;1.40;;;1.33;;
5209;SDS011;2624;48.048;11.706;2023-04-03T20:26:08;1.70;;;1.60;;
5209;SDS011;2624;48.048;11.706;2023-04-03T20:31:22;1.40;;;1.27;;
5209;SDS011;2624;48.048;11.706;2023-04-03T20:36:26;2.43;;;2.07;;
5209;SDS011;2624;48.048;11.706;2023-04-03T20:41:29;1.80;;;1.37;;
5209;SDS011;2624;48.048;11.706;2023-04-03T20:46:34;1.87;;;1.20;;
5209;SDS011;2624;48.048;11.706;2023-04-03T20:51:37;1.50;;;1.33;;
5209;SDS011;2624;48.048;11.706;2023-04-03T20:56:39;0.70;;;0.70;;
5209;SDS011;2624;48.048;11.706;2023-04-03T21:01:41;1.17;;;1.00;;
5209;SDS011;2624;48.048;11.706;2023-04-03T21:23:25;1.57;;;1.00;;
5209;SDS011;2624;48.048;11.706;2023-04-03T21:28:27;1.03;;;0.97;;
5209;SDS011;2624;48.048;11.706;2023-04-03T21:33:30;1.80;;;1.13;;
5209;SDS011;2624;48.048;11.706;2023-04-03T21:38:32;1.30;;;1.30;;
5209;SDS011;2624;48.048;11.706;2023-04-03T21:43:35;1.63;;;1.50;;
5209;SDS011;2624;48.048;11.706;2023-04-03T21:48:38;1.57;;;1.50;;
5209;SDS011;2624;48.048;11.706;2023-04-03T21:53:39;1.73;;;1.13;;
5209;SDS011;2624;48.048;11.706;2023-04-03T21:58:42;1.10;;;1.10;;
5209;SDS011;2624;48.048;11.706;2023-04-03T22:03:45;0.97;;;0.97;;
5209;SDS011;2624;48.048;11.706;2023-04-03T22:08:47;1.30;;;1.20;;
5209;SDS011;2624;48.048;11.706;2023-04-03T22:13:50;1.10;;;1.00;;
5209;SDS011;2624;48.048;11.706;2023-04-03T22:18:54;1.60;;;1.50;;
5209;SDS011;2624;48.048;11.706;2023-04-03T22:23:58;2.00;;;1.33;;
5209;SDS011;2624;48.048;11.706;2023-04-03T22:28:59;2.30;;;1.30;;
5209;SDS011;2624;48.048;11.706;2023-04-03T22:34:04;1.60;;;1.60;;
5209;SDS011;2624;48.048;11.706;2023-04-03T22:39:06;1.13;;;1.00;;
5209;SDS011;2624;48.048;11.706;2023-04-03T22:44:09;1.53;;;0.90;;
5209;SDS011;2624;48.048;11.706;2023-04-03T22:49:13;1.23;;;1.13;;
5209;SDS011;2624;48.048;11.706;2023-04-03T22:54:14;0.83;;;0.83;;
5209;SDS011;2624;48.048;11.706;2023-04-03T22:59:16;1.00;;;1.00;;
5209;SDS011;2624;48.048;11.706;2023-04-03T23:04:19;1.20;;;1.20;;
5209;SDS011;2624;48.048;11.706;2023-04-03T23:09:21;4.50;;;1.50;;
5209;SDS011;2624;48.048;11.706;2023-04-03T23:14:23;2.30;;;0.97;;
5209;SDS011;2624;48.048;11.706;2023-04-03T23:19:26;1.23;;;1.13;;
5209;SDS011;2624;48.048;11.706;2023-04-03T23:24:27;1.20;;;1.20;;
5209;SDS011;2624;48.048;11.706;2023-04-03T23:29:29;1.23;;;1.13;;
5209;SDS011;2624;48.048;11.706;2023-04-03T23:34:33;1.70;;;1.60;;
5209;SDS011;2624;48.048;11.706;2023-04-03T23:39:35;1.20;;;1.10;;
5209;SDS011;2624;48.048;11.706;2023-04-03T23:44:37;1.13;;;1.07;;
5209;SDS011;2624;48.048;11.706;2023-04-03T23:49:40;1.23;;;1.23;;
5209;SDS011;2624;48.048;11.706;2023-04-03T23:54:41;1.03;;;0.73;;
5209;SDS011;2624;48.048;11.706;2023-04-03T23:59:43;1.17;;;1.07;;
